sensor_id;sensor_type;location;lat;lon;timestamp;P1;durP1;ratioP1;P2;durP2;ratioP2
58760;SDS011;44529;47.464;19.014;2023-03-31T00:01:37;15.98;;;11.45;;
58760;SDS011;44529;47.464;19.014;2023-03-31T00:04:45;14.52;;;10.80;;
58760;SDS011;44529;47.464;19.014;2023-03-31T00:07:54;14.15;;;11.68;;
58760;SDS011;44529;47.464;19.014;2023-03-31T00:11:03;16.58;;;11.77;;
58760;SDS011;44529;47.464;19.014;2023-03-31T00:14:08;17.30;;;12.25;;
58760;SDS011;44529;47.464;19.014;2023-03-31T00:17:11;16.12;;;11.60;;
58760;SDS011;44529;47.464;19.014;2023-03-31T00:20:13;16.98;;;12.32;;
58760;SDS011;44529;47.464;19.014;2023-03-31T00:23:16;14.57;;;11.93;;
58760;SDS011;44529;47.464;19.014;2023-03-31T00:26:19;13.32;;;11.43;;
58760;SDS011;44529;47.464;19.014;2023-03-31T00:29:23;15.05;;;12.55;;
58760;SDS011;44529;47.464;19.014;2023-03-31T00:32:26;16.02;;;11.43;;
58760;SDS011;44529;47.464;19.014;2023-03-31T00:35:29;15.35;;;12.48;;
58760;SDS011;44529;47.464;19.014;2023-03-31T00:38:33;14.80;;;12.13;;
58760;SDS011;44529;47.464;19.014;2023-03-31T00:41:36;14.90;;;11.50;;
58760;SDS011;44529;47.464;19.014;2023-03-31T00:48:20;19.73;;;11.38;;
58760;SDS011;44529;47.464;19.014;2023-03-31T00:51:23;12.88;;;10.98;;
58760;SDS011;44529;47.464;19.014;2023-03-31T00:54:29;16.30;;;11.07;;
58760;SDS011;44529;47.464;19.014;2023-03-31T00:57:35;13.13;;;11.32;;
58760;SDS011;44529;47.464;19.014;2023-03-31T01:00:41;13.13;;;9.65;;
58760;SDS011;44529;47.464;19.014;2023-03-31T01:03:44;10.60;;;9.50;;
58760;SDS011;44529;47.464;19.014;2023-03-31T01:06:54;16.35;;;9.55;;
58760;SDS011;44529;47.464;19.014;2023-03-31T01:10:02;11.50;;;8.93;;
58760;SDS011;44529;47.464;19.014;2023-03-31T01:13:09;8.50;;;7.60;;
58760;SDS011;44529;47.464;19.014;2023-03-31T01:16:13;9.27;;;7.03;;
58760;SDS011;44529;47.464;19.014;2023-03-31T01:19:19;9.73;;;7.00;;
58760;SDS011;44529;47.464;19.014;2023-03-31T01:46:38;6.95;;;6.25;;
58760;SDS011;44529;47.464;19.014;2023-03-31T01:56:14;6.93;;;5.65;;
58760;SDS011;44529;47.464;19.014;2023-03-31T01:59:37;8.82;;;5.90;;
58760;SDS011;44529;47.464;19.014;2023-03-31T02:06:11;7.30;;;5.20;;
58760;SDS011;44529;47.464;19.014;2023-03-31T02:09:19;7.87;;;5.22;;
58760;SDS011;44529;47.464;19.014;2023-03-31T02:12:25;8.38;;;5.50;;
58760;SDS011;44529;47.464;19.014;2023-03-31T02:15:33;8.82;;;5.35;;
58760;SDS011;44529;47.464;19.014;2023-03-31T02:18:41;8.48;;;5.82;;
58760;SDS011;44529;47.464;19.014;2023-03-31T02:21:47;8.00;;;5.40;;
58760;SDS011;44529;47.464;19.014;2023-03-31T02:24:50;7.75;;;4.90;;
58760;SDS011;44529;47.464;19.014;2023-03-31T02:27:56;8.57;;;5.70;;
58760;SDS011;44529;47.464;19.014;2023-03-31T02:34:07;7.32;;;5.18;;
58760;SDS011;44529;47.464;19.014;2023-03-31T02:37:09;5.55;;;4.78;;
58760;SDS011;44529;47.464;19.014;2023-03-31T02:40:17;5.57;;;5.12;;
58760;SDS011;44529;47.464;19.014;2023-03-31T02:43:22;7.87;;;5.45;;
58760;SDS011;44529;47.464;19.014;2023-03-31T02:46:24;7.37;;;5.80;;
58760;SDS011;44529;47.464;19.014;2023-03-31T02:49:28;6.87;;;4.93;;
58760;SDS011;44529;47.464;19.014;2023-03-31T02:55:56;7.90;;;5.20;;
58760;SDS011;44529;47.464;19.014;2023-03-31T03:09:44;6.62;;;4.78;;
58760;SDS011;44529;47.464;19.014;2023-03-31T03:16:32;4.50;;;4.03;;
58760;SDS011;44529;47.464;19.014;2023-03-31T03:19:41;4.22;;;3.87;;
58760;SDS011;44529;47.464;19.014;2023-03-31T03:22:43;5.45;;;4.10;;
58760;SDS011;44529;47.464;19.014;2023-03-31T03:25:46;7.28;;;4.32;;
58760;SDS011;44529;47.464;19.014;2023-03-31T03:28:49;4.85;;;4.32;;
58760;SDS011;44529;47.464;19.014;2023-03-31T03:31:52;5.18;;;4.30;;
58760;SDS011;44529;47.464;19.014;2023-03-31T03:34:55;5.62;;;4.03;;
58760;SDS011;44529;47.464;19.014;2023-03-31T03:37:58;8.10;;;4.72;;
58760;SDS011;44529;47.464;19.014;2023-03-31T03:41:00;4.05;;;3.67;;
58760;SDS011;44529;47.464;19.014;2023-03-31T03:44:03;5.05;;;4.10;;
58760;SDS011;44529;47.464;19.014;2023-03-31T03:47:05;6.10;;;4.45;;
58760;SDS011;44529;47.464;19.014;2023-03-31T03:50:08;5.03;;;4.12;;
58760;SDS011;44529;47.464;19.014;2023-03-31T03:53:11;6.32;;;4.55;;
58760;SDS011;44529;47.464;19.014;2023-03-31T03:56:14;6.85;;;4.47;;
58760;SDS011;44529;47.464;19.014;2023-03-31T03:59:17;5.90;;;4.12;;
58760;SDS011;44529;47.464;19.014;2023-03-31T04:02:19;6.30;;;4.65;;
58760;SDS011;44529;47.464;19.014;2023-03-31T04:05:22;5.12;;;4.47;;
58760;SDS011;44529;47.464;19.014;2023-03-31T04:08:24;5.65;;;4.20;;
58760;SDS011;44529;47.464;19.014;2023-03-31T04:11:27;11.55;;;4.65;;
58760;SDS011;44529;47.464;19.014;2023-03-31T04:14:29;6.50;;;5.45;;
58760;SDS011;44529;47.464;19.014;2023-03-31T04:17:31;6.72;;;4.97;;
58760;SDS011;44529;47.464;19.014;2023-03-31T04:20:38;7.40;;;5.30;;
58760;SDS011;44529;47.464;19.014;2023-03-31T04:23:40;9.05;;;5.43;;
58760;SDS011;44529;47.464;19.014;2023-03-31T04:26:49;9.48;;;5.75;;
58760;SDS011;44529;47.464;19.014;2023-03-31T04:29:52;7.05;;;5.80;;
58760;SDS011;44529;47.464;19.014;2023-03-31T04:32:58;9.05;;;5.90;;
58760;SDS011;44529;47.464;19.014;2023-03-31T04:36:02;6.50;;;5.78;;
58760;SDS011;44529;47.464;19.014;2023-03-31T04:39:18;6.97;;;6.28;;
58760;SDS011;44529;47.464;19.014;2023-03-31T04:42:28;8.07;;;6.12;;
58760;SDS011;44529;47.464;19.014;2023-03-31T04:45:30;8.50;;;6.35;;
58760;SDS011;44529;47.464;19.014;2023-03-31T04:48:32;7.87;;;6.68;;
58760;SDS011;44529;47.464;19.014;2023-03-31T04:51:35;10.93;;;7.30;;
58760;SDS011;44529;47.464;19.014;2023-03-31T04:54:38;12.18;;;8.63;;
58760;SDS011;44529;47.464;19.014;2023-03-31T04:57:40;11.65;;;9.65;;
58760;SDS011;44529;47.464;19.014;2023-03-31T05:00:43;12.68;;;9.70;;
58760;SDS011;44529;47.464;19.014;2023-03-31T05:03:45;14.35;;;8.55;;
58760;SDS011;44529;47.464;19.014;2023-03-31T05:06:49;18.33;;;8.48;;
58760;SDS011;44529;47.464;19.014;2023-03-31T05:09:52;10.52;;;7.50;;
58760;SDS011;44529;47.464;19.014;2023-03-31T05:12:54;9.80;;;7.22;;
58760;SDS011;44529;47.464;19.014;2023-03-31T05:15:56;9.38;;;6.55;;
58760;SDS011;44529;47.464;19.014;2023-03-31T05:18:59;10.13;;;7.30;;
58760;SDS011;44529;47.464;19.014;2023-03-31T05:22:01;11.88;;;7.47;;
58760;SDS011;44529;47.464;19.014;2023-03-31T05:25:05;11.82;;;6.85;;
58760;SDS011;44529;47.464;19.014;2023-03-31T05:28:09;10.07;;;6.82;;
58760;SDS011;44529;47.464;19.014;2023-03-31T05:31:11;7.03;;;6.30;;
58760;SDS011;44529;47.464;19.014;2023-03-31T05:34:14;8.32;;;6.15;;
58760;SDS011;44529;47.464;19.014;2023-03-31T05:37:18;10.88;;;6.40;;
58760;SDS011;44529;47.464;19.014;2023-03-31T05:40:21;8.95;;;5.90;;
58760;SDS011;44529;47.464;19.014;2023-03-31T05:43:24;11.40;;;6.53;;
58760;SDS011;44529;47.464;19.014;2023-03-31T05:46:27;10.07;;;5.97;;
58760;SDS011;44529;47.464;19.014;2023-03-31T05:49:29;8.95;;;5.70;;
58760;SDS011;44529;47.464;19.014;2023-03-31T05:52:32;12.13;;;6.47;;
58760;SDS011;44529;47.464;19.014;2023-03-31T05:55:35;10.45;;;6.43;;
58760;SDS011;44529;47.464;19.014;2023-03-31T05:58:38;10.63;;;6.07;;
58760;SDS011;44529;47.464;19.014;2023-03-31T06:01:40;6.95;;;5.65;;
58760;SDS011;44529;47.464;19.014;2023-03-31T06:04:43;8.05;;;6.00;;
58760;SDS011;44529;47.464;19.014;2023-03-31T06:07:46;8.95;;;5.55;;
58760;SDS011;44529;47.464;19.014;2023-03-31T06:10:49;6.10;;;5.45;;
58760;SDS011;44529;47.464;19.014;2023-03-31T06:13:52;7.15;;;5.70;;
58760;SDS011;44529;47.464;19.014;2023-03-31T06:16:54;8.93;;;5.53;;
58760;SDS011;44529;47.464;19.014;2023-03-31T06:19:58;10.48;;;5.07;;
58760;SDS011;44529;47.464;19.014;2023-03-31T06:23:01;7.53;;;5.30;;
58760;SDS011;44529;47.464;19.014;2023-03-31T06:26:05;7.30;;;5.97;;
58760;SDS011;44529;47.464;19.014;2023-03-31T06:29:09;6.78;;;5.10;;
58760;SDS011;44529;47.464;19.014;2023-03-31T06:32:12;6.90;;;5.30;;
58760;SDS011;44529;47.464;19.014;2023-03-31T06:35:14;9.05;;;5.37;;
58760;SDS011;44529;47.464;19.014;2023-03-31T06:38:16;10.48;;;5.10;;
58760;SDS011;44529;47.464;19.014;2023-03-31T06:41:19;5.85;;;4.57;;
58760;SDS011;44529;47.464;19.014;2023-03-31T06:44:23;8.88;;;5.32;;
58760;SDS011;44529;47.464;19.014;2023-03-31T06:47:25;9.48;;;5.00;;
58760;SDS011;44529;47.464;19.014;2023-03-31T06:50:28;8.57;;;4.87;;
58760;SDS011;44529;47.464;19.014;2023-03-31T06:53:31;7.35;;;5.20;;
58760;SDS011;44529;47.464;19.014;2023-03-31T06:56:33;10.27;;;4.97;;
58760;SDS011;44529;47.464;19.014;2023-03-31T06:59:36;6.43;;;4.50;;
58760;SDS011;44529;47.464;19.014;2023-03-31T07:02:39;4.37;;;3.97;;
58760;SDS011;44529;47.464;19.014;2023-03-31T07:05:42;6.55;;;4.35;;
58760;SDS011;44529;47.464;19.014;2023-03-31T07:08:52;6.03;;;4.22;;
58760;SDS011;44529;47.464;19.014;2023-03-31T07:11:55;5.50;;;4.40;;
58760;SDS011;44529;47.464;19.014;2023-03-31T07:14:57;7.00;;;4.10;;
58760;SDS011;44529;47.464;19.014;2023-03-31T07:18:00;7.35;;;4.75;;
58760;SDS011;44529;47.464;19.014;2023-03-31T07:21:03;8.00;;;4.60;;
58760;SDS011;44529;47.464;19.014;2023-03-31T07:24:11;5.70;;;3.90;;
58760;SDS011;44529;47.464;19.014;2023-03-31T07:27:14;4.60;;;3.60;;
58760;SDS011;44529;47.464;19.014;2023-03-31T07:30:18;4.43;;;3.30;;
58760;SDS011;44529;47.464;19.014;2023-03-31T07:33:21;8.35;;;4.20;;
58760;SDS011;44529;47.464;19.014;2023-03-31T07:36:23;6.62;;;5.30;;
58760;SDS011;44529;47.464;19.014;2023-03-31T07:39:26;6.47;;;5.25;;
58760;SDS011;44529;47.464;19.014;2023-03-31T07:42:29;9.10;;;6.20;;
58760;SDS011;44529;47.464;19.014;2023-03-31T07:45:32;7.82;;;5.60;;
58760;SDS011;44529;47.464;19.014;2023-03-31T07:48:35;7.93;;;5.87;;
58760;SDS011;44529;47.464;19.014;2023-03-31T07:51:37;6.87;;;5.47;;
58760;SDS011;44529;47.464;19.014;2023-03-31T07:54:40;6.60;;;5.90;;
58760;SDS011;44529;47.464;19.014;2023-03-31T07:57:42;7.90;;;5.60;;
58760;SDS011;44529;47.464;19.014;2023-03-31T08:00:47;8.82;;;6.12;;
58760;SDS011;44529;47.464;19.014;2023-03-31T08:03:50;7.43;;;5.10;;
58760;SDS011;44529;47.464;19.014;2023-03-31T08:06:55;7.97;;;5.47;;
58760;SDS011;44529;47.464;19.014;2023-03-31T08:09:57;7.05;;;5.20;;
58760;SDS011;44529;47.464;19.014;2023-03-31T08:13:00;6.72;;;4.82;;
58760;SDS011;44529;47.464;19.014;2023-03-31T08:16:02;6.53;;;4.75;;
58760;SDS011;44529;47.464;19.014;2023-03-31T08:19:05;5.00;;;4.35;;
58760;SDS011;44529;47.464;19.014;2023-03-31T08:22:08;7.45;;;4.82;;
58760;SDS011;44529;47.464;19.014;2023-03-31T08:25:10;7.75;;;4.93;;
58760;SDS011;44529;47.464;19.014;2023-03-31T08:28:13;7.37;;;4.70;;
58760;SDS011;44529;47.464;19.014;2023-03-31T08:31:15;6.57;;;4.57;;
58760;SDS011;44529;47.464;19.014;2023-03-31T08:34:20;8.38;;;4.45;;
58760;SDS011;44529;47.464;19.014;2023-03-31T08:37:22;9.52;;;4.03;;
58760;SDS011;44529;47.464;19.014;2023-03-31T08:40:25;6.07;;;4.62;;
58760;SDS011;44529;47.464;19.014;2023-03-31T08:43:30;9.32;;;4.12;;
58760;SDS011;44529;47.464;19.014;2023-03-31T08:46:37;5.53;;;4.20;;
58760;SDS011;44529;47.464;19.014;2023-03-31T08:49:42;6.87;;;4.43;;
58760;SDS011;44529;47.464;19.014;2023-03-31T08:52:51;4.40;;;4.00;;
58760;SDS011;44529;47.464;19.014;2023-03-31T08:56:03;4.40;;;4.00;;
58760;SDS011;44529;47.464;19.014;2023-03-31T08:59:30;6.90;;;4.05;;
58760;SDS011;44529;47.464;19.014;2023-03-31T09:02:47;7.97;;;4.03;;
58760;SDS011;44529;47.464;19.014;2023-03-31T09:06:04;5.80;;;3.85;;
58760;SDS011;44529;47.464;19.014;2023-03-31T09:09:57;8.48;;;4.35;;
58760;SDS011;44529;47.464;19.014;2023-03-31T09:19:20;6.72;;;3.65;;
58760;SDS011;44529;47.464;19.014;2023-03-31T09:22:37;10.38;;;4.40;;
58760;SDS011;44529;47.464;19.014;2023-03-31T09:25:44;7.82;;;3.97;;
58760;SDS011;44529;47.464;19.014;2023-03-31T09:28:47;3.55;;;2.70;;
58760;SDS011;44529;47.464;19.014;2023-03-31T09:31:52;5.78;;;2.83;;
58760;SDS011;44529;47.464;19.014;2023-03-31T09:34:59;6.00;;;2.60;;
58760;SDS011;44529;47.464;19.014;2023-03-31T09:38:13;5.00;;;3.33;;
58760;SDS011;44529;47.464;19.014;2023-03-31T09:41:17;4.55;;;2.60;;
58760;SDS011;44529;47.464;19.014;2023-03-31T09:44:26;3.22;;;2.37;;
58760;SDS011;44529;47.464;19.014;2023-03-31T09:47:41;4.55;;;2.67;;
58760;SDS011;44529;47.464;19.014;2023-03-31T09:50:51;7.40;;;2.90;;
58760;SDS011;44529;47.464;19.014;2023-03-31T09:57:30;3.15;;;2.85;;
58760;SDS011;44529;47.464;19.014;2023-03-31T10:00:35;4.47;;;2.87;;
58760;SDS011;44529;47.464;19.014;2023-03-31T10:03:48;2.17;;;1.98;;
58760;SDS011;44529;47.464;19.014;2023-03-31T10:06:52;3.58;;;2.42;;
58760;SDS011;44529;47.464;19.014;2023-03-31T10:09:56;3.47;;;3.15;;
58760;SDS011;44529;47.464;19.014;2023-03-31T10:12:58;3.45;;;3.15;;
58760;SDS011;44529;47.464;19.014;2023-03-31T10:16:11;4.75;;;3.62;;
58760;SDS011;44529;47.464;19.014;2023-03-31T10:22:29;3.87;;;3.15;;
58760;SDS011;44529;47.464;19.014;2023-03-31T10:25:33;3.00;;;2.72;;
58760;SDS011;44529;47.464;19.014;2023-03-31T10:28:35;4.90;;;2.70;;
58760;SDS011;44529;47.464;19.014;2023-03-31T10:31:38;3.60;;;2.20;;
58760;SDS011;44529;47.464;19.014;2023-03-31T10:34:41;3.30;;;2.28;;
58760;SDS011;44529;47.464;19.014;2023-03-31T10:37:43;3.60;;;2.45;;
58760;SDS011;44529;47.464;19.014;2023-03-31T10:40:50;3.37;;;3.08;;
58760;SDS011;44529;47.464;19.014;2023-03-31T10:43:58;4.68;;;3.45;;
58760;SDS011;44529;47.464;19.014;2023-03-31T10:47:04;4.03;;;3.60;;
58760;SDS011;44529;47.464;19.014;2023-03-31T10:50:17;6.25;;;3.85;;
58760;SDS011;44529;47.464;19.014;2023-03-31T10:53:20;3.78;;;3.35;;
58760;SDS011;44529;47.464;19.014;2023-03-31T10:56:37;5.40;;;3.75;;
58760;SDS011;44529;47.464;19.014;2023-03-31T10:59:55;5.00;;;3.60;;
58760;SDS011;44529;47.464;19.014;2023-03-31T11:06:33;4.70;;;3.40;;
58760;SDS011;44529;47.464;19.014;2023-03-31T11:16:32;3.62;;;3.15;;
58760;SDS011;44529;47.464;19.014;2023-03-31T11:19:44;4.22;;;2.78;;
58760;SDS011;44529;47.464;19.014;2023-03-31T11:29:39;5.37;;;3.10;;
58760;SDS011;44529;47.464;19.014;2023-03-31T11:33:12;7.57;;;3.25;;
58760;SDS011;44529;47.464;19.014;2023-03-31T11:36:40;3.90;;;2.40;;
58760;SDS011;44529;47.464;19.014;2023-03-31T11:43:05;5.25;;;3.00;;
58760;SDS011;44529;47.464;19.014;2023-03-31T11:46:16;3.00;;;2.70;;
58760;SDS011;44529;47.464;19.014;2023-03-31T11:49:36;4.65;;;2.90;;
58760;SDS011;44529;47.464;19.014;2023-03-31T11:52:44;4.65;;;2.65;;
58760;SDS011;44529;47.464;19.014;2023-03-31T11:55:55;7.28;;;3.10;;
58760;SDS011;44529;47.464;19.014;2023-03-31T11:59:00;5.25;;;2.50;;
58760;SDS011;44529;47.464;19.014;2023-03-31T12:02:09;4.72;;;3.42;;
58760;SDS011;44529;47.464;19.014;2023-03-31T12:05:20;4.55;;;3.08;;
58760;SDS011;44529;47.464;19.014;2023-03-31T12:08:32;5.40;;;3.03;;
58760;SDS011;44529;47.464;19.014;2023-03-31T12:18:25;6.60;;;3.08;;
58760;SDS011;44529;47.464;19.014;2023-03-31T12:21:34;3.70;;;2.40;;
58760;SDS011;44529;47.464;19.014;2023-03-31T12:24:38;7.68;;;2.97;;
58760;SDS011;44529;47.464;19.014;2023-03-31T12:27:44;5.70;;;2.62;;
58760;SDS011;44529;47.464;19.014;2023-03-31T12:30:51;4.65;;;2.90;;
58760;SDS011;44529;47.464;19.014;2023-03-31T12:34:04;4.40;;;2.90;;
58760;SDS011;44529;47.464;19.014;2023-03-31T12:57:19;4.97;;;3.20;;
58760;SDS011;44529;47.464;19.014;2023-03-31T13:00:25;3.70;;;3.28;;
58760;SDS011;44529;47.464;19.014;2023-03-31T13:09:39;6.40;;;3.37;;
58760;SDS011;44529;47.464;19.014;2023-03-31T13:13:34;8.43;;;3.40;;
58760;SDS011;44529;47.464;19.014;2023-03-31T13:16:19;10.70;;;3.42;;
58760;SDS011;44529;47.464;19.014;2023-03-31T13:19:31;5.43;;;2.50;;
58760;SDS011;44529;47.464;19.014;2023-03-31T13:22:36;4.18;;;2.67;;
58760;SDS011;44529;47.464;19.014;2023-03-31T13:28:46;5.70;;;2.58;;
58760;SDS011;44529;47.464;19.014;2023-03-31T13:32:21;3.20;;;2.70;;
58760;SDS011;44529;47.464;19.014;2023-03-31T13:35:27;8.38;;;3.05;;
58760;SDS011;44529;47.464;19.014;2023-03-31T13:39:18;6.55;;;2.70;;
58760;SDS011;44529;47.464;19.014;2023-03-31T13:52:11;4.82;;;2.50;;
58760;SDS011;44529;47.464;19.014;2023-03-31T13:55:18;4.43;;;2.25;;
58760;SDS011;44529;47.464;19.014;2023-03-31T13:58:33;3.28;;;2.00;;
58760;SDS011;44529;47.464;19.014;2023-03-31T14:08:59;5.20;;;2.80;;
58760;SDS011;44529;47.464;19.014;2023-03-31T14:12:28;8.30;;;2.72;;
58760;SDS011;44529;47.464;19.014;2023-03-31T14:19:41;7.18;;;2.33;;
58760;SDS011;44529;47.464;19.014;2023-03-31T14:26:40;3.53;;;2.20;;
58760;SDS011;44529;47.464;19.014;2023-03-31T14:39:35;4.07;;;2.10;;
58760;SDS011;44529;47.464;19.014;2023-03-31T14:42:42;3.85;;;2.45;;
58760;SDS011;44529;47.464;19.014;2023-03-31T14:45:56;3.97;;;2.22;;
58760;SDS011;44529;47.464;19.014;2023-03-31T14:49:11;3.97;;;2.00;;
58760;SDS011;44529;47.464;19.014;2023-03-31T14:52:17;6.37;;;2.40;;
58760;SDS011;44529;47.464;19.014;2023-03-31T14:55:25;5.47;;;3.00;;
58760;SDS011;44529;47.464;19.014;2023-03-31T14:58:51;7.55;;;2.55;;
58760;SDS011;44529;47.464;19.014;2023-03-31T15:01:58;5.93;;;2.45;;
58760;SDS011;44529;47.464;19.014;2023-03-31T15:05:03;5.12;;;2.40;;
58760;SDS011;44529;47.464;19.014;2023-03-31T15:08:21;5.10;;;2.50;;
58760;SDS011;44529;47.464;19.014;2023-03-31T15:11:25;7.35;;;3.10;;
58760;SDS011;44529;47.464;19.014;2023-03-31T15:14:33;5.45;;;2.70;;
58760;SDS011;44529;47.464;19.014;2023-03-31T15:17:39;4.70;;;2.37;;
58760;SDS011;44529;47.464;19.014;2023-03-31T15:20:43;4.93;;;2.60;;
58760;SDS011;44529;47.464;19.014;2023-03-31T15:23:46;3.42;;;2.45;;
58760;SDS011;44529;47.464;19.014;2023-03-31T15:26:58;7.05;;;2.70;;
58760;SDS011;44529;47.464;19.014;2023-03-31T15:30:05;8.20;;;2.45;;
58760;SDS011;44529;47.464;19.014;2023-03-31T15:33:19;7.05;;;2.78;;
58760;SDS011;44529;47.464;19.014;2023-03-31T15:36:26;4.85;;;2.30;;
58760;SDS011;44529;47.464;19.014;2023-03-31T15:39:31;3.97;;;2.33;;
58760;SDS011;44529;47.464;19.014;2023-03-31T15:42:35;6.60;;;2.45;;
58760;SDS011;44529;47.464;19.014;2023-03-31T15:45:53;3.72;;;2.50;;
58760;SDS011;44529;47.464;19.014;2023-03-31T15:48:56;8.52;;;2.83;;
58760;SDS011;44529;47.464;19.014;2023-03-31T15:51:59;7.70;;;2.42;;
58760;SDS011;44529;47.464;19.014;2023-03-31T16:01:56;3.85;;;2.20;;
58760;SDS011;44529;47.464;19.014;2023-03-31T16:05:02;4.45;;;2.67;;
58760;SDS011;44529;47.464;19.014;2023-03-31T16:08:12;3.00;;;2.08;;
58760;SDS011;44529;47.464;19.014;2023-03-31T16:11:19;3.05;;;2.17;;
58760;SDS011;44529;47.464;19.014;2023-03-31T16:14:33;5.25;;;2.12;;
58760;SDS011;44529;47.464;19.014;2023-03-31T16:20:51;2.25;;;2.05;;
58760;SDS011;44529;47.464;19.014;2023-03-31T16:23:56;3.10;;;1.95;;
58760;SDS011;44529;47.464;19.014;2023-03-31T16:27:00;4.97;;;2.40;;
58760;SDS011;44529;47.464;19.014;2023-03-31T16:30:15;3.78;;;1.98;;
58760;SDS011;44529;47.464;19.014;2023-03-31T16:33:21;4.05;;;2.30;;
58760;SDS011;44529;47.464;19.014;2023-03-31T16:36:25;3.08;;;2.35;;
58760;SDS011;44529;47.464;19.014;2023-03-31T16:39:28;4.15;;;2.15;;
58760;SDS011;44529;47.464;19.014;2023-03-31T16:42:30;5.22;;;2.20;;
58760;SDS011;44529;47.464;19.014;2023-03-31T16:45:32;5.18;;;2.00;;
58760;SDS011;44529;47.464;19.014;2023-03-31T16:48:35;3.08;;;1.90;;
58760;SDS011;44529;47.464;19.014;2023-03-31T16:51:37;3.25;;;2.10;;
58760;SDS011;44529;47.464;19.014;2023-03-31T16:54:40;5.03;;;2.28;;
58760;SDS011;44529;47.464;19.014;2023-03-31T16:57:42;3.62;;;1.90;;
58760;SDS011;44529;47.464;19.014;2023-03-31T17:00:45;3.22;;;1.85;;
58760;SDS011;44529;47.464;19.014;2023-03-31T17:03:48;4.28;;;2.40;;
58760;SDS011;44529;47.464;19.014;2023-03-31T17:06:51;5.20;;;2.08;;
58760;SDS011;44529;47.464;19.014;2023-03-31T17:09:53;4.30;;;2.00;;
58760;SDS011;44529;47.464;19.014;2023-03-31T17:12:56;4.15;;;2.35;;
58760;SDS011;44529;47.464;19.014;2023-03-31T17:15:58;5.05;;;2.67;;
58760;SDS011;44529;47.464;19.014;2023-03-31T17:19:18;2.65;;;2.10;;
58760;SDS011;44529;47.464;19.014;2023-03-31T17:22:20;4.57;;;2.35;;
58760;SDS011;44529;47.464;19.014;2023-03-31T17:25:23;3.22;;;2.40;;
58760;SDS011;44529;47.464;19.014;2023-03-31T17:28:25;3.30;;;2.33;;
58760;SDS011;44529;47.464;19.014;2023-03-31T17:31:28;3.35;;;2.40;;
58760;SDS011;44529;47.464;19.014;2023-03-31T17:34:31;5.70;;;2.70;;
58760;SDS011;44529;47.464;19.014;2023-03-31T17:37:34;3.55;;;2.95;;
58760;SDS011;44529;47.464;19.014;2023-03-31T17:40:36;4.65;;;2.58;;
58760;SDS011;44529;47.464;19.014;2023-03-31T17:43:42;5.85;;;2.70;;
58760;SDS011;44529;47.464;19.014;2023-03-31T17:46:45;6.28;;;2.60;;
58760;SDS011;44529;47.464;19.014;2023-03-31T17:49:48;6.78;;;2.80;;
58760;SDS011;44529;47.464;19.014;2023-03-31T17:52:50;6.45;;;2.72;;
58760;SDS011;44529;47.464;19.014;2023-03-31T17:55:53;4.28;;;3.15;;
58760;SDS011;44529;47.464;19.014;2023-03-31T17:58:55;4.72;;;2.90;;
58760;SDS011;44529;47.464;19.014;2023-03-31T18:01:58;6.75;;;2.95;;
58760;SDS011;44529;47.464;19.014;2023-03-31T18:05:02;4.97;;;2.70;;
58760;SDS011;44529;47.464;19.014;2023-03-31T18:08:06;4.57;;;2.65;;
58760;SDS011;44529;47.464;19.014;2023-03-31T18:11:09;5.45;;;3.03;;
58760;SDS011;44529;47.464;19.014;2023-03-31T18:14:12;5.85;;;3.47;;
58760;SDS011;44529;47.464;19.014;2023-03-31T18:17:14;6.12;;;3.10;;
58760;SDS011;44529;47.464;19.014;2023-03-31T18:20:17;8.25;;;3.65;;
58760;SDS011;44529;47.464;19.014;2023-03-31T18:23:20;5.50;;;3.40;;
58760;SDS011;44529;47.464;19.014;2023-03-31T18:26:23;6.35;;;3.28;;
58760;SDS011;44529;47.464;19.014;2023-03-31T18:29:28;8.80;;;4.07;;
58760;SDS011;44529;47.464;19.014;2023-03-31T18:32:30;5.37;;;3.20;;
58760;SDS011;44529;47.464;19.014;2023-03-31T18:35:33;4.95;;;3.33;;
58760;SDS011;44529;47.464;19.014;2023-03-31T18:38:36;9.35;;;3.62;;
58760;SDS011;44529;47.464;19.014;2023-03-31T18:41:41;4.22;;;3.20;;
58760;SDS011;44529;47.464;19.014;2023-03-31T18:44:46;4.53;;;3.35;;
58760;SDS011;44529;47.464;19.014;2023-03-31T18:47:48;6.78;;;3.95;;
58760;SDS011;44529;47.464;19.014;2023-03-31T18:50:51;7.57;;;3.87;;
58760;SDS011;44529;47.464;19.014;2023-03-31T18:53:54;7.93;;;4.00;;
58760;SDS011;44529;47.464;19.014;2023-03-31T18:56:57;9.23;;;3.97;;
58760;SDS011;44529;47.464;19.014;2023-03-31T18:59:59;7.57;;;4.45;;
58760;SDS011;44529;47.464;19.014;2023-03-31T19:03:02;7.05;;;3.80;;
58760;SDS011;44529;47.464;19.014;2023-03-31T19:06:06;7.07;;;3.40;;
58760;SDS011;44529;47.464;19.014;2023-03-31T19:09:12;7.18;;;3.35;;
58760;SDS011;44529;47.464;19.014;2023-03-31T19:12:15;7.97;;;3.70;;
58760;SDS011;44529;47.464;19.014;2023-03-31T19:15:17;6.43;;;3.40;;
58760;SDS011;44529;47.464;19.014;2023-03-31T19:18:20;6.78;;;3.47;;
58760;SDS011;44529;47.464;19.014;2023-03-31T19:21:23;4.35;;;3.00;;
58760;SDS011;44529;47.464;19.014;2023-03-31T19:24:25;4.72;;;3.12;;
58760;SDS011;44529;47.464;19.014;2023-03-31T19:27:28;5.37;;;3.08;;
58760;SDS011;44529;47.464;19.014;2023-03-31T19:30:31;4.15;;;3.00;;
58760;SDS011;44529;47.464;19.014;2023-03-31T19:33:33;6.72;;;3.47;;
58760;SDS011;44529;47.464;19.014;2023-03-31T19:36:37;3.83;;;2.45;;
58760;SDS011;44529;47.464;19.014;2023-03-31T19:39:39;3.47;;;1.90;;
58760;SDS011;44529;47.464;19.014;2023-03-31T19:42:41;2.80;;;1.42;;
58760;SDS011;44529;47.464;19.014;2023-03-31T19:45:48;3.05;;;1.40;;
58760;SDS011;44529;47.464;19.014;2023-03-31T19:48:54;2.83;;;1.40;;
58760;SDS011;44529;47.464;19.014;2023-03-31T19:51:56;1.58;;;1.15;;
58760;SDS011;44529;47.464;19.014;2023-03-31T19:54:59;2.60;;;1.15;;
58760;SDS011;44529;47.464;19.014;2023-03-31T19:58:01;1.10;;;1.00;;
58760;SDS011;44529;47.464;19.014;2023-03-31T20:01:05;1.37;;;1.20;;
58760;SDS011;44529;47.464;19.014;2023-03-31T20:04:09;1.17;;;1.08;;
58760;SDS011;44529;47.464;19.014;2023-03-31T20:07:13;2.50;;;1.08;;
58760;SDS011;44529;47.464;19.014;2023-03-31T20:10:15;2.12;;;1.10;;
58760;SDS011;44529;47.464;19.014;2023-03-31T20:13:17;3.55;;;1.17;;
58760;SDS011;44529;47.464;19.014;2023-03-31T20:16:21;1.80;;;1.25;;
58760;SDS011;44529;47.464;19.014;2023-03-31T20:19:25;3.80;;;1.80;;
58760;SDS011;44529;47.464;19.014;2023-03-31T20:22:28;2.80;;;1.95;;
58760;SDS011;44529;47.464;19.014;2023-03-31T20:25:31;3.03;;;1.60;;
58760;SDS011;44529;47.464;19.014;2023-03-31T20:28:34;3.03;;;1.42;;
58760;SDS011;44529;47.464;19.014;2023-03-31T20:31:37;2.37;;;1.20;;
58760;SDS011;44529;47.464;19.014;2023-03-31T20:34:42;2.28;;;0.90;;
58760;SDS011;44529;47.464;19.014;2023-03-31T20:37:45;1.50;;;1.40;;
58760;SDS011;44529;47.464;19.014;2023-03-31T20:40:47;1.17;;;1.02;;
58760;SDS011;44529;47.464;19.014;2023-03-31T20:43:49;2.65;;;0.82;;
58760;SDS011;44529;47.464;19.014;2023-03-31T20:46:52;1.42;;;1.00;;
58760;SDS011;44529;47.464;19.014;2023-03-31T20:49:56;2.60;;;1.00;;
58760;SDS011;44529;47.464;19.014;2023-03-31T20:52:58;2.17;;;0.88;;
58760;SDS011;44529;47.464;19.014;2023-03-31T20:56:01;2.22;;;1.02;;
58760;SDS011;44529;47.464;19.014;2023-03-31T20:59:04;1.23;;;0.60;;
58760;SDS011;44529;47.464;19.014;2023-03-31T21:02:10;4.12;;;1.00;;
58760;SDS011;44529;47.464;19.014;2023-03-31T21:05:14;2.47;;;1.00;;
58760;SDS011;44529;47.464;19.014;2023-03-31T21:08:16;2.45;;;1.20;;
58760;SDS011;44529;47.464;19.014;2023-03-31T21:11:19;2.60;;;1.40;;
58760;SDS011;44529;47.464;19.014;2023-03-31T21:14:23;2.30;;;1.00;;